Station: Oodnadatta

  Atmospheric Gas Attenuation - ITU Rec 676-11   --------------- db/100km ---------------
Date Time Temp RH % AH g/m3 Dew Point Wind Direction Speed kph Gust kph Barometer mB Rainfall Since 9am 24GHz 47GHz 76GHz 122GHz 134GHz 241GHz
15 01:10 13.9 50 5.99 3.7 7 7 1020.9 0 14.0 22.1 30.1 78.4 65.9 224.6
15 01:00 14 50 6.03 3.8 6 7 1020.7 0 14.1 22.1 30.2 78.7 66.3 226.0
15 00:50 14.1 49 5.95 3.6 6 7 1020.8 0 13.9 22.0 29.9 77.8 65.3 222.4
15 00:40 14.3 48 5.9 3.5 7 7 1020.9 0 13.8 21.9 29.6 77.2 64.5 219.8
15 00:30 14.4 48 5.93 3.5 7 9 1020.7 0 13.9 21.9 29.7 77.3 64.8 220.7
15 00:20 14.5 48 5.97 3.6 7 9 1020.9 0 14.0 21.9 29.8 77.6 65.2 222.1
15 00:10 14.7 47 5.92 3.5 11 11 1020.9 0 13.9 21.8 29.5 77.0 64.5 219.5
15 00:00 15.1 46 5.93 3.6 11 13 1020.5 0 13.9 21.7 29.4 76.6 64.2 218.8
14 23:50 15.5 45 5.95 3.6 11 13 1020.6 0 13.9 21.7 29.4 76.5 64.2 218.5
14 23:40 15.8 45 6.06 3.9 15 17 1020.7 0 14.1 21.8 29.6 77.2 65.2 222.3
14 23:30 16.1 44 6.03 3.9 17 19 1020.9 0 14.0 21.7 29.4 76.7 64.6 220.3
14 23:20 16.4 44 6.14 4.1 17 19 1021 0 14.3 21.7 29.7 77.4 65.7 224.0
14 23:10 16.5 43 6.04 3.9 17 19 1020.9 0 14.0 21.6 29.3 76.4 64.4 219.6
14 23:00 16.4 43 6 3.8 13 15 1020.9 0 14.0 21.5 29.2 76.1 64.0 218.2
14 22:50 16.3 43 5.97 3.7 13 13 1020.9 0 13.9 21.5 29.2 75.9 63.8 217.3
14 22:40 16.2 43 5.93 3.6 13 13 1020.7 0 13.8 21.5 29.0 75.6 63.4 215.9
14 22:30 16.1 44 6.03 3.9 11 13 1020.5 0 14.0 21.6 29.4 76.7 64.6 220.2
14 22:20 16.1 44 6.03 3.9 9 11 1020.3 0 14.0 21.6 29.4 76.6 64.6 220.1
14 22:10 16.2 43 5.93 3.6 11 11 1020 0 13.8 21.5 29.0 75.6 63.3 215.7
14 22:00 16.5 43 6.04 3.9 9 11 1020.4 0 14.0 21.6 29.3 76.4 64.4 219.5
14 21:50 16.8 42 6 3.8 11 11 1020.2 0 13.9 21.4 29.1 75.7 63.7 217.0
14 21:40 16.9 42 6.04 3.9 13 15 1020.5 0 14.0 21.5 29.2 76.0 64.1 218.4
14 21:30 17.1 43 6.26 4.4 15 17 1020.2 0 14.5 21.7 29.9 77.8 66.4 226.8
14 21:20 17 43 6.22 4.3 13 15 1020.2 0 14.4 21.7 29.8 77.6 66.1 225.4
14 21:10 17.2 43 6.3 4.5 13 13 1020.1 0 14.6 21.8 30.0 78.1 66.8 228.1
14 21:00 17.5 43 6.41 4.8 9 9 1020 0 14.8 21.8 30.2 78.9 67.8 231.7
14 20:50 17.4 44 6.52 5 9 9 1020 0 15.0 22.0 30.7 80.0 69.2 236.5
14 20:40 17.5 44 6.56 5.1 11 11 1020.2 0 15.1 22.1 30.8 80.3 69.6 237.9
14 20:30 17.7 43 6.49 5 11 13 1020.2 0 14.9 21.9 30.5 79.4 68.6 234.5
14 20:20 17.8 43 6.53 5.1 11 13 1020 0 15.0 21.9 30.5 79.7 69.0 235.8
14 20:10 17.8 43 6.53 5.1 13 13 1020 0 15.0 21.9 30.5 79.7 69.0 235.8
14 20:00 18.1 42 6.49 5 13 15 1020 0 14.9 21.8 30.3 79.0 68.3 233.3
14 19:50 18.5 41 6.49 5 15 15 1020 0 14.9 21.7 30.1 78.6 67.9 232.2
14 19:40 18.9 40 6.48 5 13 13 1019.6 0 14.9 21.6 30.0 78.1 67.4 230.5
14 19:30 19.3 39 6.47 5 15 17 1019.5 0 14.8 21.5 29.8 77.6 67.0 229.0
14 19:20 19.7 39 6.62 5.4 15 17 1019.4 0 15.1 21.6 30.1 78.6 68.4 233.8
14 19:10 20.1 38 6.61 5.4 17 20 1019.3 0 15.1 21.5 30.0 78.2 67.9 232.3
14 19:00 20.4 37 6.54 5.2 19 22 1019.1 0 15.0 21.3 29.6 77.2 66.9 228.6
14 18:50 20.8 36 6.52 5.2 19 20 1019.1 0 14.9 21.2 29.4 76.7 66.3 226.7
14 18:40 21.1 36 6.63 5.5 22 24 1019.1 0 15.1 21.3 29.7 77.4 67.3 230.2
14 18:30 21.2 36 6.67 5.6 20 28 1018.9 0 15.2 21.3 29.7 77.6 67.6 231.5
14 18:20 21.2 36 6.67 5.5 19 20 1018.8 0 15.2 21.3 29.7 77.6 67.6 231.4
14 18:10 21.3 37 6.9 6 19 20 1018.6 0 15.7 21.6 30.5 79.6 70.1 240.2
14 18:00 21.4 37 6.94 6.1 19 20 1018.4 0 15.7 21.6 30.6 79.8 70.5 241.4
14 17:50 21.7 37 7.06 6.4 20 24 1018.4 0 16.0 21.7 30.9 80.6 71.5 245.3
14 17:40 22 38 7.37 7 26 30 1018.3 0 16.6 22.1 31.8 83.2 74.8 256.6
14 17:30 22.2 38 7.46 7.2 24 30 1018.2 0 16.8 22.1 32.0 83.8 75.6 259.6
14 17:20 22.4 38 7.55 7.4 22 24 1018.2 0 17.0 22.2 32.3 84.4 76.4 262.5
14 17:10 22.7 38 7.68 7.7 26 28 1018 0 17.2 22.3 32.6 85.3 77.6 266.7
14 17:00 23.1 38 7.85 8 24 30 1017.9 0 17.6 22.5 33.0 86.4 79.2 272.1
14 16:50 23.5 37 7.82 8 26 32 1017.9 0 17.5 22.3 32.8 85.7 78.4 269.6
14 16:40 23.4 38 7.99 8.3 24 28 1017.8 0 17.9 22.6 33.4 87.4 80.4 276.7
14 16:30 23.4 38 7.99 8.3 26 35 1017.7 0 17.9 22.6 33.4 87.4 80.4 276.7
14 16:20 23.8 37 7.96 8.2 26 30 1017.9 0 17.8 22.4 33.1 86.7 79.7 274.2
14 16:10 23.8 37 7.96 8.2 30 32 1017.7 0 17.8 22.4 33.1 86.7 79.7 274.1
14 16:00 23.8 37 7.96 8.2 28 37 1017.7 0 17.8 22.4 33.1 86.7 79.7 274.1
14 15:50 23.8 38 8.17 8.6 26 33 1017.7 0 18.2 22.7 33.8 88.6 82.1 282.5
14 15:40 24.1 38 8.31 8.9 28 32 1017.5 0 18.5 22.8 34.2 89.6 83.4 287.0
14 15:30 24.1 40 8.75 9.7 30 39 1017.4 0 19.4 23.5 35.7 93.7 88.4 304.7
14 15:20 23.9 41 8.87 9.9 26 32 1017.4 0 19.7 23.7 36.2 95.0 90.0 310.4
14 15:10 23.8 41 8.82 9.8 28 32 1017.4 0 19.6 23.6 36.1 94.7 89.6 308.7
14 15:00 24 42 9.14 10.3 26 35 1017.1 0 20.2 24.0 37.1 97.4 93.0 321.0
14 14:50 23.8 43 9.25 10.5 26 30 1017 0 20.5 24.3 37.6 98.7 94.6 326.3
14 14:40 24 44 9.57 11 26 33 1017 0 21.1 24.7 38.7 101.6 98.1 338.8
14 14:30 23.6 44 9.36 10.6 28 35 1017 0 20.7 24.5 38.1 100.0 96.1 331.7
14 14:20 23.4 44 9.25 10.5 28 33 1017.2 0 20.5 24.4 37.8 99.2 95.1 327.9
14 14:10 23.2 46 9.56 10.9 24 26 1017.1 0 21.1 24.9 39.0 102.5 99.0 341.7
14 14:00 23.2 47 9.77 11.3 28 35 1017.2 0 21.6 25.2 39.8 104.5 101.6 350.7
14 13:50 22.7 48 9.7 11.1 28 32 1017.2 0 21.5 25.2 39.8 104.5 101.3 349.9
14 13:40 22.6 48 9.64 11 20 28 1017.4 0 21.3 25.2 39.6 104.1 100.8 347.8
14 13:30 22.8 47 9.55 10.9 30 39 1017.7 0 21.1 25.0 39.2 102.9 99.4 343.2
14 13:20 22.8 47 9.55 10.9 26 32 1017.9 0 21.1 25.0 39.2 103.0 99.4 343.2
14 13:10 23.1 46 9.51 10.9 30 35 1017.7 0 21.0 24.8 38.9 102.2 98.6 340.2
14 13:00 22.9 48 9.81 11.3 28 37 1017.8 0 21.7 25.4 40.1 105.4 102.5 353.9
14 12:50 22.4 48 9.53 10.9 28 33 1018.3 0 21.1 25.1 39.4 103.3 99.7 344.2
14 12:40 22.6 49 9.84 11.4 30 33 1018.3 0 21.8 25.5 40.4 106.1 103.3 356.6
14 12:30 22.6 50 10.04 11.7 28 35 1018.5 0 22.2 25.8 41.2 108.2 105.8 365.3
14 12:20 21.9 51 9.84 11.3 26 30 1018.9 0 21.8 25.7 40.8 107.1 104.2 359.9
14 12:10 21.9 51 9.84 11.3 32 35 1019 0 21.8 25.7 40.8 107.1 104.3 359.9
14 12:00 21.6 51 9.67 11 30 37 1019.1 0 21.5 25.6 40.3 105.8 102.5 353.9
14 11:50 21.5 52 9.8 11.2 26 32 1019.3 0 21.7 25.8 40.9 107.3 104.3 360.1
14 11:40 21.7 53 10.11 11.7 28 35 1019.4 0 22.4 26.2 41.9 110.2 107.9 372.8
14 11:30 21.6 54 10.24 11.9 28 39 1019.4 0 22.7 26.4 42.5 111.7 109.7 379.0
14 11:20 21.1 53 9.76 11.2 32 35 1019.6 0 21.7 25.9 40.9 107.5 104.4 360.2
14 11:10 21 54 9.89 11.3 28 30 1019.6 0 22.0 26.1 41.5 108.9 106.1 366.4
14 11:00 20.8 55 9.96 11.4 30 35 1019.7 0 22.1 26.2 41.8 109.9 107.3 370.4
14 10:50 20.6 55 9.84 11.2 33 35 1019.7 0 21.9 26.1 41.5 109.0 106.0 366.1
14 10:40 20.6 56 10.02 11.5 30 33 1019.7 0 22.2 26.4 42.2 110.8 108.3 374.0
14 10:30 20.4 58 10.26 11.9 28 35 1019.8 0 22.8 26.8 43.2 113.6 111.7 385.7
14 10:20 20.1 59 10.26 11.8 30 35 1019.9 0 22.8 26.9 43.4 114.0 112.1 387.2
14 10:10 19.7 59 10.02 11.5 24 32 1020.1 0 22.3 26.7 42.7 112.1 109.6 378.4
14 10:00 19 58 9.45 10.6 26 32 1020 0 21.1 26.0 40.8 107.2 103.3 356.1
14 09:50 18.8 59 9.5 10.6 26 30 1019.9 0 21.2 26.1 41.1 107.9 104.2 359.2
14 09:40 18.2 56 8.7 9.3 19 20 1019.9 0 19.6 25.0 38.3 100.5 94.8 326.3
14 09:30 18 55 8.45 8.8 20 22 1020.1 0 19.1 24.7 37.5 98.2 91.9 316.2
14 09:20 17.9 46 7.02 6.1 9 11 1019.7 0 16.1 22.6 32.2 84.2 74.6 255.6
14 09:10 17.4 47 6.96 6 7 9 1019.4 0 15.9 22.6 32.2 84.1 74.4 254.6
14 09:00 16.8 49 7.01 6 7 9 1019.6 0 16.1 22.9 32.6 85.3 75.5 258.7
14 08:50 16.1 51 6.99 6 9 9 1019.5 0 16.1 23.0 32.8 85.8 75.9 260.0
14 08:40 15.5 53 7.01 6 7 7 1019.3 0 16.1 23.2 33.1 86.6 76.8 262.8

Last Refresh: 15-Jun-2024 01:18:20

Bureau of Meteorology